Bugt, China
Current Conditions -  °F | °C
As of 7:30 AM on Saturday 20 Dec 2014 (Local Time) from ZYTX Reporting Station
Smoke Smoke  
Wind Chill: -12°   Ceiling: Unl
Heat Index: -2°   Visibility: 2.5mi
Dew Point: -6°   Wind: 4mph
Humidity: 85%   Direction: 170°S
Pressure: 30.27"   Gusts: NA
Location:  42.33°N, 120.7°E
Report Text: ZYTX 192330Z 17002MPS 4000 FU NSC M19/M21 Q1025 NOSIG
Loading
Personal Weather Stations






























Interactive Weather Map New forecast layout! Learn more

10-Day Weather Forecast

Advertisements
Track Severe Weather on mobile